Time;durP1;ratioP1;P1;durP2;ratioP2;P2;SDS_P1;SDS_P2;PMS_P1;PMS_P2;Temp;Humidity;BMP_temperature;BMP_pressure;BME280_temperature;BME280_humidity;BME280_pressure;Samples;Min_cycle;Max_cycle;Signal;HPM_P1;HPM_P2
2023/06/11 00:01:15;;;;;;;;;;;25.40;58.30;;;25.57;40.01;98461.13;5036542;27;123139;-81
2023/06/11 00:03:46;;;;;;;;;;;25.40;58.50;;;25.52;40.46;98457.97;5036142;27;113469;-81
2023/06/11 00:06:17;;;;;;;;;;;25.40;58.70;;;25.49;40.25;98459.59;5039519;27;114486;-81
2023/06/11 00:08:45;;;;;;;;;;;25.30;58.80;;;25.46;40.90;98460.44;5046130;27;123044;-81
2023/06/11 00:11:11;;;;;;;;;;;25.30;59.00;;;25.42;40.86;98453.25;5027708;27;123163;-79
2023/06/11 00:13:37;;;;;;;;;;;25.30;59.10;;;25.40;41.07;98456.47;5032056;27;114551;-79
2023/06/11 00:16:04;;;;;;;;;;;25.20;59.90;;;25.38;41.02;98453.25;5031722;27;112655;-79
2023/06/11 00:18:30;;;;;;;;;;;25.20;59.40;;;25.34;41.33;98442.00;5019193;27;124145;-80
2023/06/11 00:20:58;;;;;;;;;;;25.10;60.30;;;25.26;41.59;98445.34;5051565;27;124609;-79
2023/06/11 00:23:25;;;;;;;;;;;25.00;60.30;;;25.21;41.81;98445.78;5016902;27;114577;-79
2023/06/11 00:25:54;;;;;;;;;;;25.00;60.50;;;25.19;41.84;98448.22;5028321;27;114167;-79
2023/06/11 00:28:20;;;;;;;;;;;25.00;60.70;;;25.14;42.08;98447.41;5017240;28;123302;-79
2023/06/11 00:30:47;;;;;;;;;;;24.90;60.80;;;25.11;42.07;98447.47;5035599;27;123865;-79
2023/06/11 00:33:13;;;;;;;;;;;24.90;60.90;;;25.07;42.93;98441.06;5031021;27;114428;-79
2023/06/11 00:35:39;;;;;;;;;;;24.80;62.50;;;24.94;42.93;98443.59;5042228;27;113788;-79
2023/06/11 00:38:05;;;;;;;;;;;24.70;62.60;;;24.85;43.30;98437.59;5029947;27;123108;-80
2023/06/11 00:40:32;;;;;;;;;;;24.60;62.50;;;24.83;43.21;98448.53;5038163;27;124296;-79
2023/06/11 00:42:58;;;;;;;;;;;24.60;62.90;;;24.82;43.15;98450.53;5045507;27;114808;-79
2023/06/11 00:45:27;;;;;;;;;;;24.60;62.90;;;24.82;43.23;98444.09;5038788;27;112940;-80
2023/06/11 00:47:53;;;;;;;;;;;24.60;63.10;;;24.82;43.21;98444.09;5041079;27;124888;-79
2023/06/11 00:50:19;;;;;;;;;;;24.60;63.10;;;24.80;43.73;98438.88;5022499;27;122775;-79
2023/06/11 00:52:46;;;;;;;;;;;24.60;63.40;;;24.78;43.86;98449.00;5041144;27;113727;-79
2023/06/11 00:55:12;;;;;;;;;;;24.50;63.60;;;24.75;44.20;98456.28;5037396;27;113740;-79
2023/06/11 00:57:41;;;;;;;;;;;24.50;64.10;;;24.68;43.97;98456.31;5038404;27;123379;-80
2023/06/11 01:00:12;;;;;;;;;;;24.50;64.10;;;24.66;44.16;98456.75;5020647;27;123475;-80
2023/06/11 01:02:57;;;;;;;;;;;24.50;64.20;;;24.63;44.00;98454.72;5021883;27;114515;-79
2023/06/11 01:05:25;;;;;;;;;;;24.40;64.30;;;24.62;44.02;98452.34;5028602;27;113812;-80
2023/06/11 01:07:55;;;;;;;;;;;24.40;64.30;;;24.61;44.46;98456.38;5028598;27;124304;-79
2023/06/11 01:10:26;;;;;;;;;;;24.40;64.40;;;24.60;44.45;98458.41;5048925;27;124129;-80
2023/06/11 01:12:52;;;;;;;;;;;24.40;64.50;;;24.57;44.57;98453.59;5037519;27;116000;-79
2023/06/11 01:15:21;;;;;;;;;;;24.30;64.70;;;24.56;44.53;98452.00;5037644;27;114859;-79
2023/06/11 01:17:57;;;;;;;;;;;24.30;64.80;;;24.54;44.74;98460.06;5047202;27;124648;-79
2023/06/11 01:20:57;;;;;;;;;;;24.30;64.90;;;24.52;44.41;98459.66;5031793;27;123931;-79
2023/06/11 01:23:41;;;;;;;;;;;24.30;65.00;;;24.51;44.56;98458.06;5027408;27;113419;-80
2023/06/11 01:26:46;;;;;;;;;;;24.30;65.10;;;24.48;44.64;98467.38;5039189;27;113684;-80
2023/06/11 01:29:16;;;;;;;;;;;24.30;65.20;;;24.46;44.55;98466.97;5053771;27;123853;-80
2023/06/11 01:31:45;;;;;;;;;;;24.20;65.30;;;24.44;44.96;98467.38;5053881;27;123506;-80
2023/06/11 01:34:13;;;;;;;;;;;24.20;66.20;;;24.42;44.86;98466.16;5037516;27;113752;-80
2023/06/11 01:36:39;;;;;;;;;;;24.20;65.60;;;24.41;44.85;98464.56;5036833;27;113354;-80
2023/06/11 01:39:05;;;;;;;;;;;24.20;65.70;;;24.38;45.07;98471.84;5046922;27;124141;-79
2023/06/11 01:41:32;;;;;;;;;;;24.20;65.90;;;24.35;45.13;98469.84;5051362;27;124529;-80
2023/06/11 01:43:58;;;;;;;;;;;24.10;65.90;;;24.32;45.21;98467.06;5052513;27;114385;-80
2023/06/11 01:46:24;;;;;;;;;;;24.10;66.20;;;24.23;45.25;98459.84;5054515;27;113677;-80
2023/06/11 01:48:50;;;;;;;;;;;24.10;66.20;;;24.20;45.47;98471.94;5051912;27;124250;-80
2023/06/11 01:51:17;;;;;;;;;;;24.00;66.20;;;24.18;45.68;98465.94;5053199;27;123537;-80
2023/06/11 01:53:43;;;;;;;;;;;24.00;66.40;;;24.14;45.48;98469.97;5042382;27;114009;-80
2023/06/11 01:56:10;;;;;;;;;;;24.00;66.50;;;24.07;45.35;98465.16;5045815;27;113809;-79
2023/06/11 01:58:37;;;;;;;;;;;23.90;66.60;;;24.00;45.93;98465.22;5043860;27;125034;-80
2023/06/11 02:01:03;;;;;;;;;;;23.80;66.90;;;23.91;46.08;98468.50;5039552;27;124031;-80
2023/06/11 02:03:30;;;;;;;;;;;23.70;67.40;;;23.84;46.28;98471.34;5023472;27;114344;-80
2023/06/11 02:05:56;;;;;;;;;;;23.70;67.30;;;23.79;46.16;98466.13;5023713;27;114341;-80
2023/06/11 02:08:23;;;;;;;;;;;25.10;68.70;;;23.77;46.38;98458.06;5038624;27;123713;-80
2023/06/11 02:10:49;;;;;;;;;;;23.60;67.50;;;23.78;46.39;98465.31;5040561;27;124140;-80
2023/06/11 02:13:15;;;;;;;;;;;23.60;67.60;;;23.79;46.33;98468.94;5039702;27;114362;-80
2023/06/11 02:15:41;;;;;;;;;;;23.60;67.80;;;23.78;46.36;98459.69;5048051;27;113683;-80
2023/06/11 02:18:10;;;;;;;;;;;23.60;67.90;;;23.81;46.46;98458.06;5044045;27;124096;-80
2023/06/11 02:20:36;;;;;;;;;;;23.60;68.00;;;23.80;46.48;98462.91;5046887;27;123290;-80
2023/06/11 02:23:03;;;;;;;;;;;23.60;68.20;;;23.80;46.56;98465.72;5042047;27;114303;-80
2023/06/11 02:25:30;;;;;;;;;;;23.60;68.30;;;23.79;46.53;98469.75;5036529;27;113906;-80
2023/06/11 02:27:56;;;;;;;;;;;23.60;68.40;;;23.78;46.61;98465.31;5041664;27;124024;-80
2023/06/11 02:30:22;;;;;;;;;;;23.60;68.50;;;23.78;46.59;98473.78;5042027;27;124528;-80
2023/06/11 02:32:49;;;;;;;;;;;23.50;68.50;;;23.77;46.92;98472.16;5036278;27;114271;-80
2023/06/11 02:35:15;;;;;;;;;;;23.50;68.60;;;23.78;46.72;98470.97;5045990;27;113800;-80
2023/06/11 02:37:41;;;;;;;;;;;23.50;68.80;;;23.78;46.67;98479.44;5038077;27;124197;-80
2023/06/11 02:40:08;;;;;;;;;;;23.50;68.90;;;23.77;46.72;98477.00;5036054;27;123896;-80
2023/06/11 02:42:34;;;;;;;;;;;23.50;69.00;;;23.76;46.83;98490.31;5046014;27;114339;-80
2023/06/11 02:45:01;;;;;;;;;;;23.50;69.00;;;23.73;46.49;98477.03;5049305;27;113919;-79
2023/06/11 02:47:27;;;;;;;;;;;23.50;69.10;;;23.71;46.80;98479.44;5033685;27;124714;-79
2023/06/11 02:49:53;;;;;;;;;;;23.50;69.20;;;23.70;46.65;98483.47;5037666;27;123673;-80
2023/06/11 02:52:19;;;;;;;;;;;23.50;69.20;;;23.69;46.85;98479.00;5040520;27;114358;-80
2023/06/11 02:54:46;;;;;;;;;;;23.50;69.30;;;23.67;46.89;98489.91;5047416;27;114443;-80
2023/06/11 02:57:12;;;;;;;;;;;23.40;69.30;;;23.64;46.88;98485.06;5040870;27;124196;-80
2023/06/11 02:59:38;;;;;;;;;;;23.40;69.40;;;23.63;46.97;98491.94;5045164;27;124313;-80
2023/06/11 03:02:05;;;;;;;;;;;23.40;69.40;;;23.59;46.80;98488.34;5033886;27;114351;-80
2023/06/11 03:04:31;;;;;;;;;;;23.30;69.40;;;23.56;47.03;98500.41;5031693;27;113380;-80
2023/06/11 03:06:57;;;;;;;;;;;23.30;69.50;;;23.54;47.00;98497.22;5047881;27;124201;-80
2023/06/11 03:09:24;;;;;;;;;;;23.30;69.60;;;23.53;47.09;98506.88;5044421;27;123245;-80
2023/06/11 03:11:51;;;;;;;;;;;23.30;69.70;;;23.45;47.26;98505.28;5034481;27;114511;-80
2023/06/11 03:14:17;;;;;;;;;;;23.20;70.00;;;23.37;47.42;98508.13;5034087;27;114015;-80
2023/06/11 03:16:43;;;;;;;;;;;23.20;70.00;;;23.32;47.38;98507.72;5030184;27;124575;-80
2023/06/11 03:19:09;;;;;;;;;;;23.10;70.00;;;23.28;47.27;98512.56;5043491;27;123805;-80
2023/06/11 03:21:36;;;;;;;;;;;23.10;70.10;;;23.23;47.45;98510.16;5039113;27;113432;-80
2023/06/11 03:24:02;;;;;;;;;;;23.10;70.30;;;23.20;47.62;98517.41;5050696;27;113891;-80
2023/06/11 03:26:28;;;;;;;;;;;23.00;70.30;;;23.17;47.57;98520.22;5050651;27;123759;-80
2023/06/11 03:28:55;;;;;;;;;;;23.00;70.60;;;23.12;47.60;98518.63;5053082;27;124052;-79
2023/06/11 03:31:21;;;;;;;;;;;23.00;70.50;;;23.09;47.65;98516.59;5050169;27;115085;-80
2023/06/11 03:33:47;;;;;;;;;;;22.90;70.50;;;23.06;47.84;98517.41;5035986;27;113253;-80
2023/06/11 03:36:14;;;;;;;;;;;22.90;70.50;;;23.01;48.06;98515.00;5048689;27;124529;-80
2023/06/11 03:38:40;;;;;;;;;;;22.80;70.90;;;22.93;47.70;98512.16;5034762;27;124390;-80
2023/06/11 03:41:08;;;;;;;;;;;22.80;70.90;;;22.90;47.81;98503.72;5050116;27;115247;-80
2023/06/11 03:43:34;;;;;;;;;;;22.70;70.90;;;22.87;48.13;98505.31;5049044;27;114595;-80
2023/06/11 03:46:02;;;;;;;;;;;22.70;71.10;;;22.83;47.99;98515.75;5034419;27;123086;-80
2023/06/11 03:48:32;;;;;;;;;;;22.70;71.20;;;22.83;48.07;98521.41;5016770;27;96949;-80
2023/06/11 03:50:58;;;;;;;;;;;22.60;71.30;;;22.87;48.30;98513.75;5045379;27;114474;-80
2023/06/11 03:53:25;;;;;;;;;;;22.60;71.50;;;22.87;48.26;98522.22;5037721;27;113782;-81
2023/06/11 03:55:53;;;;;;;;;;;22.60;71.80;;;22.85;47.99;98521.81;5046644;27;124206;-80
2023/06/11 03:58:22;;;;;;;;;;;22.60;71.80;;;22.84;48.16;98517.38;5025783;28;123260;-80
2023/06/11 04:00:48;;;;;;;;;;;22.60;71.80;;;22.87;48.48;98516.59;5044801;27;112561;-80
2023/06/11 04:03:14;;;;;;;;;;;22.60;72.30;;;22.90;48.27;98529.84;5021407;27;113107;-80
2023/06/11 04:05:42;;;;;;;;;;;22.60;72.30;;;22.90;48.18;98527.03;5048601;27;124597;-80
2023/06/11 04:08:08;;;;;;;;;;;22.50;72.60;;;22.89;48.41;98538.69;5038968;27;124052;-80
2023/06/11 04:10:34;;;;;;;;;;;22.50;72.70;;;22.86;48.24;98543.16;5041396;27;113372;-80
2023/06/11 04:13:01;;;;;;;;;;;22.50;72.80;;;22.79;48.37;98536.72;5035973;27;113744;-80
2023/06/11 04:15:27;;;;;;;;;;;22.40;72.70;;;22.76;48.54;98538.31;5041388;27;124103;-81
2023/06/11 04:17:53;;;;;;;;;;;22.40;72.80;;;22.76;48.37;98538.31;5043930;27;123196;-80
2023/06/11 04:20:19;;;;;;;;;;;22.50;73.00;;;22.78;48.52;98535.88;5048322;27;114322;-80
2023/06/11 04:22:46;;;;;;;;;;;22.50;73.00;;;22.80;48.23;98539.09;5042195;27;113668;-80
2023/06/11 04:25:12;;;;;;;;;;;22.50;73.10;;;22.83;48.46;98537.50;5041687;27;124620;-80
2023/06/11 04:27:38;;;;;;;;;;;22.50;73.10;;;22.84;48.46;98550.41;5048894;27;124241;-80
2023/06/11 04:30:06;;;;;;;;;;;22.50;73.10;;;22.86;48.27;98542.31;5036296;27;115114;-80
2023/06/11 04:32:36;;;;;;;;;;;22.50;73.10;;;22.88;48.51;98545.56;5040548;27;114693;-80
2023/06/11 04:35:04;;;;;;;;;;;22.60;73.20;;;22.91;48.29;98548.38;5045254;27;124795;-80
2023/06/11 04:37:30;;;;;;;;;;;22.50;73.10;;;22.93;48.44;98537.50;5050370;27;123867;-81
2023/06/11 04:40:10;;;;;;;;;;;22.60;73.20;;;22.94;48.48;98541.94;5034570;27;113484;-80
2023/06/11 04:42:40;;;;;;;;;;;22.60;73.30;;;22.96;48.23;98544.38;5037259;27;113172;-80
2023/06/11 04:45:10;;;;;;;;;;;22.60;73.30;;;22.99;48.38;98545.59;5032326;27;124621;-78
2023/06/11 04:47:40;;;;;;;;;;;22.60;73.30;;;23.00;48.18;98547.19;5041752;27;123973;-80
2023/06/11 04:50:06;;;;;;;;;;;22.70;73.50;;;23.00;48.18;98544.38;5034089;27;114512;-80
2023/06/11 04:52:35;;;;;;;;;;;22.60;73.40;;;23.03;48.25;98540.78;5042596;27;113982;-80
2023/06/11 04:55:04;;;;;;;;;;;22.70;73.50;;;23.06;48.24;98543.59;5028273;28;123732;-80
2023/06/11 04:57:33;;;;;;;;;;;22.70;73.50;;;23.09;48.08;98539.16;5030859;27;123621;-80
2023/06/11 05:00:01;;;;;;;;;;;22.70;73.60;;;23.09;48.04;98539.97;5044605;27;114588;-80
2023/06/11 05:02:32;;;;;;;;;;;22.70;73.50;;;23.13;47.99;98548.41;5030373;27;113635;-80
2023/06/11 05:04:58;;;;;;;;;;;23.10;73.90;;;23.15;48.08;98546.00;5039141;27;123531;-80
2023/06/11 05:07:24;;;;;;;;;;;22.80;74.30;;;23.17;47.81;98543.59;5038225;27;123647;-80
2023/06/11 05:09:50;;;;;;;;;;;22.80;73.60;;;23.19;47.98;98546.00;5046632;27;114328;-80
2023/06/11 05:12:17;;;;;;;;;;;22.80;73.60;;;23.21;48.03;98555.66;5028370;27;113120;-79
2023/06/11 05:14:44;;;;;;;;;;;22.80;73.60;;;23.24;47.98;98551.22;5012775;27;123189;-80
2023/06/11 05:17:10;;;;;;;;;;;22.80;73.80;;;23.24;48.05;98557.69;5048451;27;124117;-80
2023/06/11 05:19:36;;;;;;;;;;;22.80;73.70;;;23.24;48.12;98557.69;5034026;27;115273;-80
2023/06/11 05:22:03;;;;;;;;;;;22.90;73.80;;;23.26;48.10;98558.06;5040185;27;114974;-80
2023/06/11 05:24:30;;;;;;;;;;;22.90;74.60;;;23.26;48.09;98555.25;5032371;27;124024;-80
2023/06/11 05:26:56;;;;;;;;;;;22.90;73.80;;;23.29;47.84;98564.91;5047777;27;123996;-80
2023/06/11 05:29:23;;;;;;;;;;;22.90;73.80;;;23.28;47.92;98560.50;5042219;27;114407;-80
2023/06/11 05:31:49;;;;;;;;;;;22.90;73.90;;;23.29;48.05;98562.91;5047228;27;113812;-80
2023/06/11 05:34:15;;;;;;;;;;;22.90;74.10;;;23.29;47.98;98554.47;5046872;27;124173;-80
2023/06/11 05:36:42;;;;;;;;;;;22.90;73.80;;;23.32;47.89;98559.28;5046732;27;123817;-79
2023/06/11 05:39:08;;;;;;;;;;;22.90;73.90;;;23.36;47.58;98550.81;5048302;27;114286;-80
2023/06/11 05:41:35;;;;;;;;;;;23.00;73.90;;;23.44;47.82;98560.06;5040337;27;114054;-80
2023/06/11 05:44:01;;;;;;;;;;;23.00;73.90;;;23.50;47.49;98564.88;5048586;27;124102;-79
2023/06/11 05:46:28;;;;;;;;;;;23.10;73.90;;;23.55;47.21;98566.50;5047977;27;123968;-80
2023/06/11 05:48:55;;;;;;;;;;;23.10;73.80;;;23.62;47.28;98572.13;5047777;27;114762;-79
2023/06/11 05:51:21;;;;;;;;;;;23.20;73.80;;;23.67;47.23;98562.44;5033306;27;115775;-79
2023/06/11 05:53:50;;;;;;;;;;;23.20;73.60;;;23.73;47.19;98561.66;5044093;27;124023;-79
2023/06/11 05:56:17;;;;;;;;;;;23.30;73.70;;;23.80;46.81;98560.81;5031868;27;122786;-79
2023/06/11 05:58:43;;;;;;;;;;;23.30;73.60;;;23.87;46.75;98566.44;5028803;27;115119;-79
2023/06/11 06:01:12;;;;;;;;;;;23.40;73.60;;;23.94;46.71;98574.91;5042973;27;113878;-79
2023/06/11 06:03:38;;;;;;;;;;;23.40;73.40;;;23.98;46.47;98577.72;5027414;27;124866;-79
2023/06/11 06:06:04;;;;;;;;;;;23.50;73.40;;;24.01;46.73;98565.59;5016870;27;123387;-79
2023/06/11 06:08:31;;;;;;;;;;;23.50;73.40;;;24.02;46.76;98572.88;5049567;27;115878;-79
2023/06/11 06:10:57;;;;;;;;;;;23.50;73.30;;;24.02;46.49;98582.13;5040199;27;114707;-79
2023/06/11 06:13:24;;;;;;;;;;;23.50;73.20;;;24.04;46.50;98587.34;5029420;27;124158;-79
2023/06/11 06:15:53;;;;;;;;;;;22.90;72.60;;;24.08;46.54;98584.53;5035573;27;124119;-79
2023/06/11 06:18:20;;;;;;;;;;;23.50;73.10;;;24.09;46.28;98584.13;5031305;27;114275;-80
2023/06/11 06:20:46;;;;;;;;;;;23.60;72.90;;;24.11;46.53;98590.16;5022776;28;113760;-79
2023/06/11 06:23:12;;;;;;;;;;;23.60;72.90;;;24.14;46.50;98583.69;5027381;27;122414;-76
2023/06/11 06:25:38;;;;;;;;;;;23.60;72.70;;;24.16;46.30;98589.75;5018099;28;123153;-77
2023/06/11 06:28:08;;;;;;;;;;;23.60;72.80;;;24.21;46.27;98591.34;5019332;28;114318;-77
2023/06/11 06:30:34;;;;;;;;;;;23.70;72.80;;;24.30;46.00;98588.88;5023078;28;113719;-76
2023/06/11 06:33:01;;;;;;;;;;;23.70;72.70;;;24.36;46.08;98586.44;5032080;27;123329;-76
2023/06/11 06:35:30;;;;;;;;;;;23.80;72.70;;;24.44;46.01;98588.84;5006653;27;124088;-77
2023/06/11 06:37:58;;;;;;;;;;;23.90;72.70;;;24.52;45.79;98592.44;5019670;28;114954;-76
2023/06/11 06:40:25;;;;;;;;;;;23.90;72.50;;;24.58;45.51;98590.81;5037276;27;113869;-80
2023/06/11 06:42:51;;;;;;;;;;;24.00;72.30;;;24.60;45.26;98588.34;5009870;28;125452;-76
2023/06/11 06:45:17;;;;;;;;;;;24.00;72.20;;;24.65;45.50;98592.75;5026265;28;124178;-76
2023/06/11 06:47:43;;;;;;;;;;;24.00;72.10;;;24.69;45.23;98587.91;5030843;28;113265;-75
2023/06/11 06:50:10;;;;;;;;;;;24.10;71.90;;;24.73;45.12;98588.69;5028631;27;112783;-80
2023/06/11 06:52:38;;;;;;;;;;;24.10;71.90;;;24.76;44.74;98587.06;4999450;28;123993;-79
2023/06/11 06:55:05;;;;;;;;;;;24.20;71.60;;;24.76;44.48;98587.06;5019578;28;123883;-79
2023/06/11 06:57:31;;;;;;;;;;;24.10;71.10;;;24.74;44.62;98590.28;5030832;28;116021;-80
2023/06/11 06:59:58;;;;;;;;;;;24.20;71.10;;;24.77;44.76;98595.13;5028978;28;114758;-80
2023/06/11 07:02:24;;;;;;;;;;;24.20;71.00;;;24.85;44.57;98587.38;5020455;28;125065;-80
2023/06/11 07:04:51;;;;;;;;;;;24.30;71.00;;;24.94;44.53;98593.41;5016224;28;124031;-79
2023/06/11 07:07:17;;;;;;;;;;;24.30;70.60;;;25.02;44.25;98582.84;5017621;28;114746;-81
2023/06/11 07:09:43;;;;;;;;;;;24.40;70.40;;;25.11;43.89;98592.44;5013029;28;113723;-75
2023/06/11 07:12:10;;;;;;;;;;;24.50;70.30;;;25.24;43.86;98586.34;5023825;28;123273;-72
2023/06/11 07:14:36;;;;;;;;;;;24.60;70.00;;;25.34;43.58;98583.41;5027988;28;124245;-75
2023/06/11 07:17:03;;;;;;;;;;;24.70;69.60;;;25.44;42.62;98581.72;5025814;28;114246;-77
2023/06/11 07:19:29;;;;;;;;;;;24.80;69.00;;;25.46;42.47;98584.13;5025378;28;113022;-78
2023/06/11 07:21:55;;;;;;;;;;;24.80;68.10;;;25.44;41.89;98578.91;5020485;28;124200;-78
2023/06/11 07:24:21;;;;;;;;;;;24.70;67.30;;;25.43;41.86;98584.97;5016005;28;124178;-78
2023/06/11 07:26:50;;;;;;;;;;;24.70;67.60;;;25.48;41.49;98584.50;5015473;27;113644;-78
2023/06/11 07:29:16;;;;;;;;;;;24.80;67.30;;;25.48;41.27;98579.66;5013905;28;113893;-78
2023/06/11 07:31:42;;;;;;;;;;;24.70;66.60;;;25.50;41.65;98582.06;5026387;28;124052;-77
2023/06/11 07:34:09;;;;;;;;;;;24.80;66.60;;;25.55;41.14;98588.09;5031288;27;122838;-77
2023/06/11 07:36:38;;;;;;;;;;;24.90;66.40;;;25.60;41.47;98583.97;5025921;28;114417;-76
2023/06/11 07:39:04;;;;;;;;;;;24.90;66.20;;;25.64;41.16;98579.09;5028140;27;114213;-76
2023/06/11 07:41:31;;;;;;;;;;;25.00;66.40;;;25.74;41.16;98583.06;5047349;27;124128;-77
2023/06/11 07:43:59;;;;;;;;;;;25.10;66.40;;;25.82;40.73;98587.41;5027577;27;124081;-78
2023/06/11 07:46:26;;;;;;;;;;;25.10;65.80;;;25.85;41.20;98591.47;5018753;28;115476;-79
2023/06/11 07:48:52;;;;;;;;;;;25.20;65.80;;;25.89;40.98;98586.56;5019314;28;113865;-79
2023/06/11 07:51:20;;;;;;;;;;;25.20;65.50;;;25.91;40.82;98590.56;4994587;27;123743;-78
2023/06/11 07:53:47;;;;;;;;;;;25.30;65.10;;;25.93;40.46;98587.31;5024052;28;124590;-78
2023/06/11 07:56:15;;;;;;;;;;;25.30;65.10;;;25.98;40.19;98587.66;5027474;28;114517;-77
2023/06/11 07:58:41;;;;;;;;;;;25.40;64.30;;;25.99;39.82;98591.28;5024070;28;111815;-77
2023/06/11 08:01:08;;;;;;;;;;;25.40;63.60;;;26.00;39.21;98585.19;5019573;28;124103;-78
2023/06/11 08:03:35;;;;;;;;;;;25.30;63.00;;;26.02;39.70;98592.47;5027456;28;124047;-77
2023/06/11 08:06:02;;;;;;;;;;;25.30;63.30;;;26.05;39.20;98592.44;5019689;28;114358;-77
2023/06/11 08:08:28;;;;;;;;;;;25.40;63.00;;;26.08;39.53;98594.41;5027379;28;113670;-77
2023/06/11 08:10:54;;;;;;;;;;;25.40;63.00;;;26.11;38.88;98584.28;5029312;27;124149;-77
2023/06/11 08:13:21;;;;;;;;;;;25.50;62.80;;;26.17;39.18;98583.41;5013423;28;123634;-77
2023/06/11 08:15:50;;;;;;;;;;;25.50;62.30;;;26.25;38.83;98572.78;5014828;27;113553;-77
2023/06/11 08:18:16;;;;;;;;;;;25.60;62.10;;;26.33;38.73;98574.31;5020977;28;114653;-77
2023/06/11 08:20:42;;;;;;;;;;;25.70;61.80;;;26.38;38.54;98576.66;5021122;28;124619;-79
2023/06/11 08:23:12;;;;;;;;;;;25.70;61.60;;;26.44;38.15;98574.16;5023182;28;123957;-79
2023/06/11 08:25:39;;;;;;;;;;;25.80;61.00;;;26.48;38.01;98574.09;5017234;28;114864;-74
2023/06/11 08:28:05;;;;;;;;;;;25.80;60.80;;;26.53;37.21;98568.00;5025193;28;113068;-78
2023/06/11 08:30:31;;;;;;;;;;;25.90;59.70;;;26.52;37.11;98574.88;5026929;27;124351;-78
2023/06/11 08:32:58;;;;;;;;;;;25.90;59.40;;;26.54;37.38;98572.41;5017961;28;124001;-78
2023/06/11 08:35:24;;;;;;;;;;;25.90;59.40;;;26.54;36.46;98570.38;5016991;28;115337;-78
2023/06/11 08:37:51;;;;;;;;;;;25.90;58.40;;;26.55;36.65;98568.38;5014041;28;114478;-78
2023/06/11 08:40:20;;;;;;;;;;;25.90;58.30;;;26.57;36.31;98571.56;5025551;27;123254;-78
2023/06/11 08:42:47;;;;;;;;;;;26.00;58.10;;;26.57;35.90;98577.22;5026025;28;123766;-78
2023/06/11 08:45:15;;;;;;;;;;;26.00;57.40;;;26.57;35.83;98571.56;5022193;27;113457;-78
2023/06/11 08:47:48;;;;;;;;;;;26.00;57.30;;;26.61;35.88;98566.66;5004012;28;112881;-78
2023/06/11 08:50:16;;;;;;;;;;;26.00;57.30;;;26.66;36.18;98563.34;5011306;28;124078;-78
2023/06/11 08:52:42;;;;;;;;;;;26.00;58.20;;;26.70;36.06;98569.75;5012168;27;124311;-78
2023/06/11 08:55:09;;;;;;;;;;;26.10;57.70;;;26.73;36.15;98574.56;5021206;28;114176;-78
2023/06/11 08:57:36;;;;;;;;;;;26.20;57.60;;;26.76;35.51;98562.41;5021786;27;114032;-78
2023/06/11 09:00:05;;;;;;;;;;;26.10;56.80;;;26.73;35.34;98566.06;5028426;28;123479;-82
2023/06/11 09:02:31;;;;;;;;;;;26.20;56.80;;;26.71;35.62;98562.88;5012600;28;123058;-82
2023/06/11 09:04:58;;;;;;;;;;;26.10;57.00;;;26.73;35.70;98563.22;5016359;28;114462;-81
2023/06/11 09:07:24;;;;;;;;;;;26.20;57.20;;;26.80;36.11;98565.97;5013829;27;112866;-80
2023/06/11 09:10:11;;;;;;;;;;;25.50;56.80;;;26.81;35.77;98566.75;5000588;28;123772;-80
2023/06/11 09:12:37;;;;;;;;;;;26.20;56.50;;;26.86;35.07;98558.56;5014333;28;123987;-82
2023/06/11 09:15:04;;;;;;;;;;;26.30;56.60;;;26.94;35.30;98555.66;5023872;28;114708;-82
2023/06/11 09:17:38;;;;;;;;;;;26.40;56.80;;;27.01;35.59;98555.53;5006929;28;112816;-81
2023/06/11 09:20:13;;;;;;;;;;;26.40;56.70;;;27.10;35.30;98569.97;5026497;27;124778;-81
2023/06/11 09:22:43;;;;;;;;;;;26.50;56.50;;;27.09;35.51;98563.50;5008039;28;122374;-81
2023/06/11 09:25:16;;;;;;;;;;;26.50;56.50;;;27.08;35.24;98558.25;5025764;28;115383;-82
2023/06/11 09:27:45;;;;;;;;;;;26.60;56.20;;;27.07;35.02;98559.47;5020706;28;114911;-81
2023/06/11 09:30:13;;;;;;;;;;;26.60;56.20;;;27.09;35.15;98545.69;5028630;28;124062;-81
2023/06/11 09:32:42;;;;;;;;;;;26.60;56.10;;;27.14;35.00;98550.06;5032626;27;124003;-80
2023/06/11 09:35:09;;;;;;;;;;;26.70;56.10;;;27.19;34.78;98544.75;5026693;27;114630;-84
2023/06/11 09:37:40;;;;;;;;;;;26.70;55.80;;;27.24;34.08;98546.25;5022265;28;115029;-82
2023/06/11 09:40:09;;;;;;;;;;;26.80;55.00;;;27.27;34.11;98549.06;5040942;27;123839;-82
2023/06/11 09:42:35;;;;;;;;;;;26.70;54.60;;;27.26;33.46;98544.59;5020646;27;124813;-82
2023/06/11 09:45:02;;;;;;;;;;;26.70;53.40;;;27.28;32.40;98542.13;5033123;27;114612;-81
2023/06/11 09:47:32;;;;;;;;;;;26.80;52.40;;;27.28;32.71;98544.97;5012843;27;113075;-82
2023/06/11 09:49:59;;;;;;;;;;;26.80;52.40;;;27.34;31.61;98548.13;5014784;28;124181;-82
2023/06/11 09:52:26;;;;;;;;;;;26.80;51.20;;;27.37;31.55;98552.13;5027574;28;124563;-82
2023/06/11 09:54:53;;;;;;;;;;;26.80;50.50;;;27.35;30.63;98540.41;5012079;27;113484;-83
2023/06/11 09:57:21;;;;;;;;;;;26.80;49.70;;;27.35;30.70;98546.06;5022458;27;113920;-83
2023/06/11 09:59:48;;;;;;;;;;;26.80;49.50;;;27.34;30.37;98541.66;5028797;27;123676;-81
2023/06/11 10:02:14;;;;;;;;;;;26.80;49.10;;;27.31;30.89;98535.59;5017238;27;124048;-81
2023/06/11 10:04:41;;;;;;;;;;;26.80;49.20;;;27.33;30.33;98540.06;5014561;27;113567;-81
2023/06/11 10:07:07;;;;;;;;;;;26.80;48.60;;;27.38;30.40;98548.03;5020922;27;113895;-81
2023/06/11 10:09:34;;;;;;;;;;;26.80;48.40;;;27.40;30.21;98539.91;5018969;27;124226;-82
2023/06/11 10:12:00;;;;;;;;;;;26.80;48.30;;;27.42;30.37;98541.06;5007110;27;123183;-81
2023/06/11 10:14:27;;;;;;;;;;;26.90;48.40;;;27.47;30.51;98539.78;5021070;27;115772;-81
2023/06/11 10:16:56;;;;;;;;;;;27.00;48.60;;;27.51;29.86;98544.16;5005214;28;114143;-81
2023/06/11 10:19:22;;;;;;;;;;;27.00;48.00;;;27.56;30.35;98550.56;5019959;27;124249;-82
2023/06/11 10:21:52;;;;;;;;;;;27.00;48.20;;;27.59;29.83;98544.81;5008018;27;125201;-81
2023/06/11 10:24:24;;;;;;;;;;;27.10;48.20;;;27.62;29.19;98541.13;5020462;27;114743;-81
2023/06/11 10:27:13;;;;;;;;;;;27.10;47.10;;;27.53;29.13;98535.22;5016603;27;113865;-81
2023/06/11 10:29:47;;;;;;;;;;;27.10;46.40;;;27.57;29.14;98532.31;5023379;27;123494;-81
2023/06/11 10:32:19;;;;;;;;;;;27.10;46.50;;;27.62;28.90;98537.47;5014840;27;123629;-81
2023/06/11 10:35:07;;;;;;;;;;;27.10;46.30;;;27.66;28.79;98538.22;5019820;27;114582;-82
2023/06/11 10:37:40;;;;;;;;;;;27.20;46.50;;;27.71;28.93;98547.03;5017977;27;113793;-81
2023/06/11 10:40:09;;;;;;;;;;;27.20;46.20;;;27.71;28.35;98532.03;5010468;27;124260;-80
2023/06/11 10:42:42;;;;;;;;;;;27.20;45.50;;;27.73;28.75;98547.41;4995922;28;123118;-80
2023/06/11 10:45:10;;;;;;;;;;;27.20;45.60;;;27.77;28.71;98556.63;4996445;28;113463;-81
2023/06/11 10:47:49;;;;;;;;;;;27.30;45.60;;;27.81;28.79;98548.09;5021475;27;113907;-80
2023/06/11 10:50:17;;;;;;;;;;;27.30;45.80;;;27.86;28.96;98541.09;5012818;27;124450;-80
2023/06/11 10:52:58;;;;;;;;;;;27.30;46.20;;;27.89;29.10;98540.25;5017221;27;124018;-81
2023/06/11 10:55:26;;;;;;;;;;;27.40;46.40;;;27.96;29.06;98537.25;5011792;27;114462;-81
2023/06/11 10:57:53;;;;;;;;;;;27.50;46.70;;;28.03;29.04;98536.31;5007561;28;112965;-80
2023/06/11 11:00:19;;;;;;;;;;;27.50;46.10;;;28.09;28.60;98538.19;5025532;27;126651;-80
2023/06/11 11:02:47;;;;;;;;;;;27.60;45.90;;;28.15;28.93;98532.81;5027406;27;123937;-81
2023/06/11 11:05:13;;;;;;;;;;;27.70;46.30;;;28.19;28.71;98531.50;5022103;27;115641;-81
2023/06/11 11:07:44;;;;;;;;;;;27.70;45.80;;;28.24;29.01;98532.19;5037566;27;115217;-80
2023/06/11 11:10:11;;;;;;;;;;;27.70;45.80;;;28.29;29.01;98537.38;5016833;27;124352;-81
2023/06/11 11:12:43;;;;;;;;;;;27.70;46.30;;;28.33;29.38;98523.91;5019582;27;123960;-80